sensor_id;sensor_type;location;lat;lon;timestamp;P1;durP1;ratioP1;P2;durP2;ratioP2
36241;SDS011;22283;42.748;12.732;2024-02-21T00:01:39;6.13;;;1.37;;
36241;SDS011;22283;42.748;12.732;2024-02-21T00:06:39;2.93;;;1.47;;
36241;SDS011;22283;42.748;12.732;2024-02-21T00:11:40;4.43;;;1.30;;
36241;SDS011;22283;42.748;12.732;2024-02-21T00:16:40;1.97;;;1.00;;
36241;SDS011;22283;42.748;12.732;2024-02-21T00:21:41;3.73;;;1.30;;
36241;SDS011;22283;42.748;12.732;2024-02-21T00:26:41;1.90;;;1.00;;
36241;SDS011;22283;42.748;12.732;2024-02-21T00:31:42;2.80;;;1.27;;
36241;SDS011;22283;42.748;12.732;2024-02-21T00:36:42;2.63;;;1.03;;
36241;SDS011;22283;42.748;12.732;2024-02-21T00:41:43;1.87;;;1.10;;
36241;SDS011;22283;42.748;12.732;2024-02-21T00:46:44;2.97;;;1.00;;
36241;SDS011;22283;42.748;12.732;2024-02-21T00:51:44;2.13;;;1.10;;
36241;SDS011;22283;42.748;12.732;2024-02-21T00:56:44;2.00;;;0.97;;
36241;SDS011;22283;42.748;12.732;2024-02-21T01:01:45;1.97;;;1.00;;
36241;SDS011;22283;42.748;12.732;2024-02-21T01:06:45;2.20;;;1.13;;
36241;SDS011;22283;42.748;12.732;2024-02-21T01:11:46;2.23;;;0.90;;
36241;SDS011;22283;42.748;12.732;2024-02-21T01:16:46;1.73;;;0.90;;
36241;SDS011;22283;42.748;12.732;2024-02-21T01:21:47;1.53;;;0.80;;
36241;SDS011;22283;42.748;12.732;2024-02-21T01:26:48;2.03;;;0.90;;
36241;SDS011;22283;42.748;12.732;2024-02-21T01:31:48;2.87;;;0.80;;
36241;SDS011;22283;42.748;12.732;2024-02-21T01:36:48;1.07;;;0.70;;
36241;SDS011;22283;42.748;12.732;2024-02-21T01:41:49;0.80;;;0.53;;
36241;SDS011;22283;42.748;12.732;2024-02-21T01:46:50;2.27;;;0.90;;
36241;SDS011;22283;42.748;12.732;2024-02-21T01:51:52;2.05;;;1.02;;
36241;SDS011;22283;42.748;12.732;2024-02-21T01:56:53;2.78;;;0.80;;
36241;SDS011;22283;42.748;12.732;2024-02-21T02:01:54;2.93;;;0.90;;
36241;SDS011;22283;42.748;12.732;2024-02-21T02:06:57;3.03;;;1.02;;
36241;SDS011;22283;42.748;12.732;2024-02-21T02:12:03;1.83;;;0.73;;
36241;SDS011;22283;42.748;12.732;2024-02-21T02:17:03;1.47;;;0.70;;
36241;SDS011;22283;42.748;12.732;2024-02-21T02:22:13;8.07;;;1.87;;
36241;SDS011;22283;42.748;12.732;2024-02-21T02:27:21;3.13;;;0.80;;
36241;SDS011;22283;42.748;12.732;2024-02-21T02:37:23;3.25;;;1.10;;
36241;SDS011;22283;42.748;12.732;2024-02-21T02:42:24;2.08;;;1.02;;
36241;SDS011;22283;42.748;12.732;2024-02-21T02:47:25;2.30;;;0.87;;
36241;SDS011;22283;42.748;12.732;2024-02-21T02:52:25;1.50;;;0.80;;
36241;SDS011;22283;42.748;12.732;2024-02-21T02:57:26;1.67;;;0.90;;
36241;SDS011;22283;42.748;12.732;2024-02-21T03:02:26;1.23;;;0.70;;
36241;SDS011;22283;42.748;12.732;2024-02-21T03:07:27;3.80;;;1.20;;
36241;SDS011;22283;42.748;12.732;2024-02-21T03:12:28;1.80;;;1.00;;
36241;SDS011;22283;42.748;12.732;2024-02-21T03:17:29;3.50;;;1.20;;
36241;SDS011;22283;42.748;12.732;2024-02-21T03:22:30;2.83;;;1.20;;
36241;SDS011;22283;42.748;12.732;2024-02-21T03:27:32;1.90;;;1.20;;
36241;SDS011;22283;42.748;12.732;2024-02-21T03:32:32;2.23;;;0.90;;
36241;SDS011;22283;42.748;12.732;2024-02-21T03:37:33;2.60;;;1.10;;
36241;SDS011;22283;42.748;12.732;2024-02-21T03:42:33;3.47;;;1.00;;
36241;SDS011;22283;42.748;12.732;2024-02-21T03:47:34;1.97;;;1.00;;
36241;SDS011;22283;42.748;12.732;2024-02-21T03:52:34;4.37;;;1.17;;
36241;SDS011;22283;42.748;12.732;2024-02-21T03:57:35;2.47;;;1.00;;
36241;SDS011;22283;42.748;12.732;2024-02-21T04:02:35;3.23;;;0.87;;
36241;SDS011;22283;42.748;12.732;2024-02-21T04:07:37;3.37;;;1.33;;
36241;SDS011;22283;42.748;12.732;2024-02-21T04:12:38;2.42;;;1.25;;
36241;SDS011;22283;42.748;12.732;2024-02-21T04:17:38;2.83;;;0.87;;
36241;SDS011;22283;42.748;12.732;2024-02-21T04:22:39;4.10;;;1.17;;
36241;SDS011;22283;42.748;12.732;2024-02-21T04:27:39;4.67;;;1.20;;
36241;SDS011;22283;42.748;12.732;2024-02-21T04:32:40;3.03;;;1.33;;
36241;SDS011;22283;42.748;12.732;2024-02-21T04:37:41;2.57;;;1.23;;
36241;SDS011;22283;42.748;12.732;2024-02-21T04:42:41;2.80;;;1.20;;
36241;SDS011;22283;42.748;12.732;2024-02-21T04:47:42;3.57;;;1.50;;
36241;SDS011;22283;42.748;12.732;2024-02-21T04:52:43;3.67;;;1.60;;
36241;SDS011;22283;42.748;12.732;2024-02-21T04:57:43;4.53;;;1.93;;
36241;SDS011;22283;42.748;12.732;2024-02-21T05:02:44;3.03;;;1.67;;
36241;SDS011;22283;42.748;12.732;2024-02-21T05:07:44;3.70;;;1.60;;
36241;SDS011;22283;42.748;12.732;2024-02-21T05:12:46;12.07;;;2.00;;
36241;SDS011;22283;42.748;12.732;2024-02-21T05:17:46;3.50;;;1.00;;
36241;SDS011;22283;42.748;12.732;2024-02-21T05:22:47;3.63;;;2.20;;
36241;SDS011;22283;42.748;12.732;2024-02-21T05:27:47;4.00;;;2.40;;
36241;SDS011;22283;42.748;12.732;2024-02-21T05:32:48;6.37;;;2.20;;
36241;SDS011;22283;42.748;12.732;2024-02-21T05:37:49;8.80;;;2.57;;
36241;SDS011;22283;42.748;12.732;2024-02-21T05:42:53;5.82;;;1.70;;
36241;SDS011;22283;42.748;12.732;2024-02-21T05:47:53;11.10;;;2.30;;
36241;SDS011;22283;42.748;12.732;2024-02-21T05:52:54;16.87;;;2.33;;
36241;SDS011;22283;42.748;12.732;2024-02-21T05:57:55;9.52;;;2.20;;
36241;SDS011;22283;42.748;12.732;2024-02-21T06:02:56;6.67;;;3.43;;
36241;SDS011;22283;42.748;12.732;2024-02-21T06:07:56;7.27;;;3.27;;
36241;SDS011;22283;42.748;12.732;2024-02-21T06:12:58;3.80;;;2.17;;
36241;SDS011;22283;42.748;12.732;2024-02-21T06:17:58;10.20;;;2.63;;
36241;SDS011;22283;42.748;12.732;2024-02-21T06:22:59;10.63;;;2.37;;
36241;SDS011;22283;42.748;12.732;2024-02-21T06:28:00;2.93;;;1.50;;
36241;SDS011;22283;42.748;12.732;2024-02-21T06:33:00;6.43;;;2.50;;
36241;SDS011;22283;42.748;12.732;2024-02-21T06:38:02;15.88;;;4.25;;
36241;SDS011;22283;42.748;12.732;2024-02-21T06:43:03;4.93;;;2.57;;
36241;SDS011;22283;42.748;12.732;2024-02-21T06:48:04;5.67;;;1.50;;
36241;SDS011;22283;42.748;12.732;2024-02-21T06:53:05;6.50;;;1.93;;
36241;SDS011;22283;42.748;12.732;2024-02-21T06:58:06;7.30;;;3.40;;
36241;SDS011;22283;42.748;12.732;2024-02-21T07:03:11;7.25;;;1.90;;
36241;SDS011;22283;42.748;12.732;2024-02-21T07:08:12;5.10;;;1.67;;
36241;SDS011;22283;42.748;12.732;2024-02-21T07:13:13;2.20;;;1.35;;
36241;SDS011;22283;42.748;12.732;2024-02-21T07:18:15;8.82;;;1.90;;
36241;SDS011;22283;42.748;12.732;2024-02-21T07:23:16;7.17;;;2.97;;
36241;SDS011;22283;42.748;12.732;2024-02-21T07:28:17;13.07;;;4.47;;
36241;SDS011;22283;42.748;12.732;2024-02-21T07:33:17;6.53;;;2.27;;
36241;SDS011;22283;42.748;12.732;2024-02-21T07:38:20;20.73;;;2.80;;
36241;SDS011;22283;42.748;12.732;2024-02-21T07:43:20;7.32;;;3.65;;
36241;SDS011;22283;42.748;12.732;2024-02-21T07:48:22;7.22;;;2.72;;
36241;SDS011;22283;42.748;12.732;2024-02-21T07:53:26;10.70;;;4.00;;
36241;SDS011;22283;42.748;12.732;2024-02-21T07:58:27;16.57;;;4.70;;
36241;SDS011;22283;42.748;12.732;2024-02-21T08:03:27;9.73;;;3.20;;
36241;SDS011;22283;42.748;12.732;2024-02-21T08:08:28;8.17;;;3.23;;
36241;SDS011;22283;42.748;12.732;2024-02-21T08:13:28;47.17;;;25.67;;
36241;SDS011;22283;42.748;12.732;2024-02-21T08:18:29;23.50;;;9.47;;
36241;SDS011;22283;42.748;12.732;2024-02-21T08:23:29;9.83;;;4.53;;
36241;SDS011;22283;42.748;12.732;2024-02-21T08:28:30;8.60;;;5.07;;
36241;SDS011;22283;42.748;12.732;2024-02-21T08:33:31;10.70;;;6.60;;
36241;SDS011;22283;42.748;12.732;2024-02-21T08:38:31;18.00;;;7.10;;
36241;SDS011;22283;42.748;12.732;2024-02-21T08:43:32;7.97;;;4.87;;
36241;SDS011;22283;42.748;12.732;2024-02-21T08:48:34;11.40;;;5.03;;
36241;SDS011;22283;42.748;12.732;2024-02-21T08:53:35;10.27;;;4.67;;
36241;SDS011;22283;42.748;12.732;2024-02-21T08:58:36;7.07;;;2.60;;
36241;SDS011;22283;42.748;12.732;2024-02-21T09:03:37;6.38;;;4.25;;
36241;SDS011;22283;42.748;12.732;2024-02-21T09:08:38;12.00;;;5.95;;
36241;SDS011;22283;42.748;12.732;2024-02-21T09:13:39;12.13;;;5.37;;
36241;SDS011;22283;42.748;12.732;2024-02-21T09:18:39;9.40;;;5.37;;
36241;SDS011;22283;42.748;12.732;2024-02-21T09:23:40;17.80;;;5.90;;
36241;SDS011;22283;42.748;12.732;2024-02-21T09:28:40;15.63;;;6.00;;
36241;SDS011;22283;42.748;12.732;2024-02-21T09:33:41;12.17;;;5.13;;
36241;SDS011;22283;42.748;12.732;2024-02-21T09:38:41;10.17;;;3.50;;
36241;SDS011;22283;42.748;12.732;2024-02-21T09:43:42;11.00;;;2.80;;
36241;SDS011;22283;42.748;12.732;2024-02-21T09:54:04;8.35;;;2.80;;
36241;SDS011;22283;42.748;12.732;2024-02-21T09:59:04;7.03;;;3.30;;
36241;SDS011;22283;42.748;12.732;2024-02-21T10:04:05;5.17;;;2.87;;
36241;SDS011;22283;42.748;12.732;2024-02-21T10:09:06;8.77;;;2.97;;
36241;SDS011;22283;42.748;12.732;2024-02-21T10:14:07;15.07;;;3.92;;
36241;SDS011;22283;42.748;12.732;2024-02-21T10:19:15;7.07;;;3.80;;
36241;SDS011;22283;42.748;12.732;2024-02-21T10:24:25;4.93;;;2.95;;
36241;SDS011;22283;42.748;12.732;2024-02-21T10:29:26;4.30;;;2.75;;
36241;SDS011;22283;42.748;12.732;2024-02-21T10:34:27;4.57;;;2.47;;
36241;SDS011;22283;42.748;12.732;2024-02-21T10:39:27;9.67;;;2.70;;
36241;SDS011;22283;42.748;12.732;2024-02-21T10:44:28;11.37;;;2.90;;
36241;SDS011;22283;42.748;12.732;2024-02-21T10:49:30;7.13;;;2.95;;
36241;SDS011;22283;42.748;12.732;2024-02-21T10:59:48;4.22;;;2.05;;
36241;SDS011;22283;42.748;12.732;2024-02-21T11:04:48;2.80;;;1.92;;
36241;SDS011;22283;42.748;12.732;2024-02-21T11:09:52;8.70;;;2.60;;
36241;SDS011;22283;42.748;12.732;2024-02-21T11:15:05;5.78;;;2.47;;
36241;SDS011;22283;42.748;12.732;2024-02-21T11:20:12;7.53;;;2.53;;
36241;SDS011;22283;42.748;12.732;2024-02-21T11:25:20;8.57;;;2.90;;
36241;SDS011;22283;42.748;12.732;2024-02-21T11:30:26;6.90;;;2.20;;
36241;SDS011;22283;42.748;12.732;2024-02-21T11:35:30;5.68;;;2.95;;
36241;SDS011;22283;42.748;12.732;2024-02-21T11:40:38;4.53;;;2.50;;
36241;SDS011;22283;42.748;12.732;2024-02-21T11:45:39;5.88;;;2.38;;
36241;SDS011;22283;42.748;12.732;2024-02-21T11:50:40;7.00;;;2.60;;
36241;SDS011;22283;42.748;12.732;2024-02-21T11:55:40;4.30;;;2.67;;
36241;SDS011;22283;42.748;12.732;2024-02-21T12:00:41;6.00;;;3.63;;
36241;SDS011;22283;42.748;12.732;2024-02-21T12:05:41;13.47;;;2.73;;
36241;SDS011;22283;42.748;12.732;2024-02-21T12:10:42;4.40;;;2.23;;
36241;SDS011;22283;42.748;12.732;2024-02-21T12:15:47;4.45;;;2.33;;
36241;SDS011;22283;42.748;12.732;2024-02-21T12:20:49;6.72;;;2.63;;
36241;SDS011;22283;42.748;12.732;2024-02-21T12:25:50;4.43;;;2.57;;
36241;SDS011;22283;42.748;12.732;2024-02-21T12:30:54;5.82;;;2.15;;
36241;SDS011;22283;42.748;12.732;2024-02-21T12:35:55;6.23;;;2.33;;
36241;SDS011;22283;42.748;12.732;2024-02-21T12:41:04;5.17;;;2.43;;
36241;SDS011;22283;42.748;12.732;2024-02-21T12:46:05;9.63;;;2.70;;
36241;SDS011;22283;42.748;12.732;2024-02-21T12:51:07;26.52;;;5.25;;
36241;SDS011;22283;42.748;12.732;2024-02-21T12:56:08;4.60;;;2.57;;
36241;SDS011;22283;42.748;12.732;2024-02-21T13:01:08;7.60;;;2.53;;
36241;SDS011;22283;42.748;12.732;2024-02-21T13:06:09;6.93;;;2.60;;
36241;SDS011;22283;42.748;12.732;2024-02-21T13:16:12;5.03;;;1.93;;
36241;SDS011;22283;42.748;12.732;2024-02-21T13:21:13;4.93;;;2.33;;
36241;SDS011;22283;42.748;12.732;2024-02-21T13:26:13;9.50;;;2.70;;
36241;SDS011;22283;42.748;12.732;2024-02-21T13:31:14;6.23;;;2.50;;
36241;SDS011;22283;42.748;12.732;2024-02-21T13:36:16;5.05;;;3.13;;
36241;SDS011;22283;42.748;12.732;2024-02-21T13:41:17;4.87;;;2.30;;
36241;SDS011;22283;42.748;12.732;2024-02-21T13:46:24;20.50;;;3.67;;
36241;SDS011;22283;42.748;12.732;2024-02-21T13:51:33;7.47;;;3.22;;
36241;SDS011;22283;42.748;12.732;2024-02-21T13:56:38;6.57;;;2.38;;
36241;SDS011;22283;42.748;12.732;2024-02-21T14:01:38;8.97;;;2.70;;
36241;SDS011;22283;42.748;12.732;2024-02-21T14:06:39;3.47;;;2.13;;
36241;SDS011;22283;42.748;12.732;2024-02-21T14:11:43;5.15;;;2.88;;
36241;SDS011;22283;42.748;12.732;2024-02-21T14:16:45;4.55;;;2.75;;
36241;SDS011;22283;42.748;12.732;2024-02-21T14:21:47;5.88;;;3.08;;
36241;SDS011;22283;42.748;12.732;2024-02-21T14:26:48;4.73;;;3.17;;
36241;SDS011;22283;42.748;12.732;2024-02-21T14:31:49;5.67;;;3.03;;
36241;SDS011;22283;42.748;12.732;2024-02-21T14:36:49;5.67;;;2.77;;
36241;SDS011;22283;42.748;12.732;2024-02-21T14:41:50;11.17;;;3.27;;
36241;SDS011;22283;42.748;12.732;2024-02-21T14:46:51;5.28;;;2.70;;
36241;SDS011;22283;42.748;12.732;2024-02-21T14:51:52;9.63;;;3.83;;
36241;SDS011;22283;42.748;12.732;2024-02-21T14:56:59;9.77;;;3.30;;
36241;SDS011;22283;42.748;12.732;2024-02-21T15:02:01;7.45;;;2.83;;
36241;SDS011;22283;42.748;12.732;2024-02-21T15:07:01;10.57;;;4.63;;
36241;SDS011;22283;42.748;12.732;2024-02-21T15:12:02;5.75;;;3.15;;
36241;SDS011;22283;42.748;12.732;2024-02-21T15:17:03;10.10;;;3.47;;
36241;SDS011;22283;42.748;12.732;2024-02-21T15:22:04;7.68;;;2.72;;
36241;SDS011;22283;42.748;12.732;2024-02-21T15:27:04;5.05;;;2.10;;
36241;SDS011;22283;42.748;12.732;2024-02-21T15:32:05;5.03;;;2.00;;
36241;SDS011;22283;42.748;12.732;2024-02-21T15:37:12;7.85;;;2.88;;
36241;SDS011;22283;42.748;12.732;2024-02-21T15:42:15;8.57;;;2.70;;
36241;SDS011;22283;42.748;12.732;2024-02-21T15:47:18;14.45;;;5.28;;
36241;SDS011;22283;42.748;12.732;2024-02-21T15:52:23;11.82;;;4.43;;
36241;SDS011;22283;42.748;12.732;2024-02-21T15:57:24;10.63;;;5.27;;
36241;SDS011;22283;42.748;12.732;2024-02-21T16:02:25;12.73;;;6.78;;
36241;SDS011;22283;42.748;12.732;2024-02-21T16:07:26;13.27;;;5.13;;
36241;SDS011;22283;42.748;12.732;2024-02-21T16:12:27;9.32;;;3.83;;
36241;SDS011;22283;42.748;12.732;2024-02-21T16:17:28;12.30;;;4.37;;
36241;SDS011;22283;42.748;12.732;2024-02-21T16:22:28;11.70;;;4.93;;
36241;SDS011;22283;42.748;12.732;2024-02-21T16:27:29;12.20;;;4.60;;
36241;SDS011;22283;42.748;12.732;2024-02-21T16:37:31;17.30;;;9.32;;
36241;SDS011;22283;42.748;12.732;2024-02-21T16:42:32;24.07;;;10.30;;
36241;SDS011;22283;42.748;12.732;2024-02-21T16:47:32;24.00;;;7.47;;
36241;SDS011;22283;42.748;12.732;2024-02-21T16:52:33;26.27;;;9.53;;
36241;SDS011;22283;42.748;12.732;2024-02-21T16:57:40;15.30;;;8.00;;
36241;SDS011;22283;42.748;12.732;2024-02-21T17:02:40;18.93;;;8.27;;
36241;SDS011;22283;42.748;12.732;2024-02-21T17:07:41;35.33;;;7.90;;
36241;SDS011;22283;42.748;12.732;2024-02-21T17:12:42;22.77;;;7.20;;
36241;SDS011;22283;42.748;12.732;2024-02-21T17:17:42;16.83;;;8.67;;
36241;SDS011;22283;42.748;12.732;2024-02-21T17:22:43;18.60;;;9.07;;
36241;SDS011;22283;42.748;12.732;2024-02-21T17:27:43;19.20;;;8.53;;
36241;SDS011;22283;42.748;12.732;2024-02-21T17:32:44;16.20;;;8.40;;
36241;SDS011;22283;42.748;12.732;2024-02-21T17:37:45;12.90;;;7.23;;
36241;SDS011;22283;42.748;12.732;2024-02-21T17:42:46;16.83;;;8.40;;
36241;SDS011;22283;42.748;12.732;2024-02-21T17:47:46;24.77;;;11.17;;
36241;SDS011;22283;42.748;12.732;2024-02-21T17:52:48;20.65;;;10.45;;
36241;SDS011;22283;42.748;12.732;2024-02-21T17:57:49;26.97;;;10.57;;
36241;SDS011;22283;42.748;12.732;2024-02-21T18:02:49;26.40;;;9.97;;
36241;SDS011;22283;42.748;12.732;2024-02-21T18:07:50;21.00;;;8.90;;
36241;SDS011;22283;42.748;12.732;2024-02-21T18:12:51;14.23;;;8.20;;
36241;SDS011;22283;42.748;12.732;2024-02-21T18:17:52;19.10;;;9.13;;
36241;SDS011;22283;42.748;12.732;2024-02-21T18:22:52;17.60;;;10.07;;
36241;SDS011;22283;42.748;12.732;2024-02-21T18:27:53;28.63;;;10.53;;
36241;SDS011;22283;42.748;12.732;2024-02-21T18:37:55;15.77;;;9.85;;
36241;SDS011;22283;42.748;12.732;2024-02-21T18:42:56;19.80;;;10.67;;
36241;SDS011;22283;42.748;12.732;2024-02-21T18:47:57;16.73;;;7.78;;
36241;SDS011;22283;42.748;12.732;2024-02-21T18:52:58;19.80;;;9.77;;
36241;SDS011;22283;42.748;12.732;2024-02-21T18:58:00;15.80;;;7.10;;
36241;SDS011;22283;42.748;12.732;2024-02-21T19:03:00;21.70;;;7.70;;
36241;SDS011;22283;42.748;12.732;2024-02-21T19:08:01;13.77;;;6.57;;
36241;SDS011;22283;42.748;12.732;2024-02-21T19:13:01;12.87;;;6.73;;
36241;SDS011;22283;42.748;12.732;2024-02-21T19:18:02;17.80;;;7.60;;
36241;SDS011;22283;42.748;12.732;2024-02-21T19:23:03;15.05;;;7.05;;
36241;SDS011;22283;42.748;12.732;2024-02-21T19:28:04;13.20;;;6.22;;
36241;SDS011;22283;42.748;12.732;2024-02-21T19:33:05;19.03;;;6.07;;
36241;SDS011;22283;42.748;12.732;2024-02-21T19:38:06;8.90;;;5.87;;
36241;SDS011;22283;42.748;12.732;2024-02-21T19:43:06;55.65;;;12.15;;
36241;SDS011;22283;42.748;12.732;2024-02-21T19:48:07;18.93;;;7.27;;
36241;SDS011;22283;42.748;12.732;2024-02-21T19:53:07;13.83;;;6.93;;
36241;SDS011;22283;42.748;12.732;2024-02-21T19:58:08;12.73;;;6.77;;
36241;SDS011;22283;42.748;12.732;2024-02-21T20:03:09;11.77;;;5.77;;
36241;SDS011;22283;42.748;12.732;2024-02-21T20:08:09;14.57;;;6.27;;
36241;SDS011;22283;42.748;12.732;2024-02-21T20:18:13;16.60;;;8.00;;
36241;SDS011;22283;42.748;12.732;2024-02-21T20:23:14;17.17;;;8.27;;
36241;SDS011;22283;42.748;12.732;2024-02-21T20:28:14;22.33;;;8.17;;
36241;SDS011;22283;42.748;12.732;2024-02-21T20:33:17;12.57;;;6.40;;
36241;SDS011;22283;42.748;12.732;2024-02-21T20:38:18;13.27;;;6.07;;
36241;SDS011;22283;42.748;12.732;2024-02-21T20:43:18;10.57;;;4.70;;
36241;SDS011;22283;42.748;12.732;2024-02-21T20:48:19;15.10;;;7.73;;
36241;SDS011;22283;42.748;12.732;2024-02-21T20:53:19;11.77;;;4.53;;
36241;SDS011;22283;42.748;12.732;2024-02-21T20:58:23;9.75;;;4.43;;
36241;SDS011;22283;42.748;12.732;2024-02-21T21:03:24;24.67;;;13.83;;
36241;SDS011;22283;42.748;12.732;2024-02-21T21:08:24;40.37;;;23.20;;
36241;SDS011;22283;42.748;12.732;2024-02-21T21:13:25;11.57;;;5.13;;
36241;SDS011;22283;42.748;12.732;2024-02-21T21:18:27;7.80;;;3.20;;
36241;SDS011;22283;42.748;12.732;2024-02-21T21:23:30;6.10;;;3.80;;
36241;SDS011;22283;42.748;12.732;2024-02-21T21:28:31;6.63;;;3.25;;
36241;SDS011;22283;42.748;12.732;2024-02-21T21:33:32;9.00;;;3.90;;
36241;SDS011;22283;42.748;12.732;2024-02-21T21:38:34;6.10;;;3.30;;
36241;SDS011;22283;42.748;12.732;2024-02-21T21:43:34;6.25;;;3.13;;
36241;SDS011;22283;42.748;12.732;2024-02-21T21:53:36;11.37;;;6.40;;
36241;SDS011;22283;42.748;12.732;2024-02-21T21:58:37;7.77;;;3.90;;
36241;SDS011;22283;42.748;12.732;2024-02-21T22:03:38;6.20;;;3.57;;
36241;SDS011;22283;42.748;12.732;2024-02-21T22:08:38;9.80;;;3.80;;
36241;SDS011;22283;42.748;12.732;2024-02-21T22:13:39;7.50;;;3.90;;
36241;SDS011;22283;42.748;12.732;2024-02-21T22:18:43;9.32;;;3.50;;
36241;SDS011;22283;42.748;12.732;2024-02-21T22:23:44;6.85;;;3.58;;
36241;SDS011;22283;42.748;12.732;2024-02-21T22:28:46;12.07;;;6.43;;
36241;SDS011;22283;42.748;12.732;2024-02-21T22:38:48;9.73;;;4.47;;
36241;SDS011;22283;42.748;12.732;2024-02-21T22:43:48;10.73;;;5.80;;
36241;SDS011;22283;42.748;12.732;2024-02-21T22:48:49;6.45;;;3.80;;
36241;SDS011;22283;42.748;12.732;2024-02-21T22:53:50;9.53;;;3.60;;
36241;SDS011;22283;42.748;12.732;2024-02-21T22:58:50;6.33;;;3.57;;
36241;SDS011;22283;42.748;12.732;2024-02-21T23:03:51;5.93;;;3.27;;
36241;SDS011;22283;42.748;12.732;2024-02-21T23:08:52;9.20;;;4.70;;
36241;SDS011;22283;42.748;12.732;2024-02-21T23:13:54;5.72;;;3.10;;
36241;SDS011;22283;42.748;12.732;2024-02-21T23:18:54;7.50;;;3.70;;
36241;SDS011;22283;42.748;12.732;2024-02-21T23:23:55;10.43;;;3.90;;
36241;SDS011;22283;42.748;12.732;2024-02-21T23:28:55;7.43;;;4.10;;
36241;SDS011;22283;42.748;12.732;2024-02-21T23:33:58;14.15;;;5.88;;
36241;SDS011;22283;42.748;12.732;2024-02-21T23:38:58;20.57;;;8.53;;
36241;SDS011;22283;42.748;12.732;2024-02-21T23:43:59;9.13;;;4.03;;
36241;SDS011;22283;42.748;12.732;2024-02-21T23:48:59;7.33;;;4.20;;
36241;SDS011;22283;42.748;12.732;2024-02-21T23:54:03;6.10;;;3.33;;
36241;SDS011;22283;42.748;12.732;2024-02-21T23:59:03;6.53;;;2.43;;
